Time;durP1;ratioP1;P1;durP2;ratioP2;P2;SDS_P1;SDS_P2;PMS_P1;PMS_P2;Temp;Humidity;BMP_temperature;BMP_pressure;BME280_temperature;BME280_humidity;BME280_pressure;Samples;Min_cycle;Max_cycle;Signal;HPM_P1;HPM_P2
2021/09/10 00:00:28;;;;;;;;;5.75;4.00;;;;;23.06;68.95;100807.53;5076460;28;45926;-58
2021/09/10 00:02:53;;;;;;;;;3.00;3.00;;;;;23.08;69.19;100808.25;5075134;27;45599;-58
2021/09/10 00:05:18;;;;;;;;;2.25;2.25;;;;;23.11;69.32;100801.88;5078206;28;45207;-58
2021/09/10 00:07:44;;;;;;;;;2.50;2.50;;;;;23.06;70.01;100805.72;5070559;27;45222;-58
2021/09/10 00:10:09;;;;;;;;;2.00;2.00;;;;;23.00;71.26;100803.53;5077697;27;45173;-59
2021/09/10 00:12:35;;;;;;;;;3.50;3.50;;;;;22.94;70.39;100809.34;5073303;28;46284;-58
2021/09/10 00:15:01;;;;;;;;;5.00;3.25;;;;;22.83;72.38;100813.81;5077476;28;45359;-58
2021/09/10 00:17:26;;;;;;;;;2.00;2.00;;;;;22.72;72.86;100804.81;5074283;28;45444;-58
2021/09/10 00:19:51;;;;;;;;;4.00;3.50;;;;;22.67;72.89;100803.50;5078441;28;45201;-58
2021/09/10 00:22:17;;;;;;;;;3.50;3.50;;;;;22.66;72.67;100807.13;5075913;27;45218;-58
2021/09/10 00:24:42;;;;;;;;;2.75;2.75;;;;;22.65;72.65;100810.72;5071236;28;45505;-58
2021/09/10 00:27:07;;;;;;;;;2.50;2.00;;;;;22.62;72.88;100810.94;5066262;28;45444;-58
2021/09/10 00:29:33;;;;;;;;;3.00;3.00;;;;;22.60;72.77;100815.50;5080076;27;45240;-60
2021/09/10 00:31:58;;;;;;;;;3.00;3.00;;;;;22.60;72.42;100812.88;5076613;27;46101;-59
2021/09/10 00:34:23;;;;;;;;;3.50;3.00;;;;;22.54;73.59;100802.75;5077391;28;45710;-59
2021/09/10 00:36:49;;;;;;;;;4.00;2.00;;;;;22.50;73.28;100809.25;5075714;27;45352;-59
2021/09/10 00:39:17;;;;;;;;;3.25;2.00;;;;;22.47;73.38;100805.03;5079038;28;45754;-59
2021/09/10 00:41:43;;;;;;;;;3.75;3.75;;;;;22.50;73.13;100801.31;5066167;27;46708;-60
2021/09/10 00:44:08;;;;;;;;;2.00;2.00;;;;;22.46;74.37;100798.88;5073984;28;45382;-59
2021/09/10 00:46:34;;;;;;;;;4.50;3.25;;;;;22.41;74.32;100808.13;5077534;27;45801;-59
2021/09/10 00:49:01;;;;;;;;;5.25;3.75;;;;;22.33;74.05;100795.47;5076680;28;45445;-58
2021/09/10 00:51:26;;;;;;;;;3.00;3.00;;;;;22.41;74.09;100805.47;5080062;27;45519;-58
2021/09/10 00:53:51;;;;;;;;;5.00;2.50;;;;;22.44;73.30;100808.75;5076837;28;45231;-59
2021/09/10 00:56:17;;;;;;;;;4.25;4.25;;;;;22.46;74.74;100820.06;5076002;27;45232;-59
2021/09/10 00:58:42;;;;;;;;;4.00;4.00;;;;;22.43;74.51;100817.66;5075284;28;45474;-59
2021/09/10 01:01:08;;;;;;;;;2.75;2.75;;;;;22.41;74.39;100818.72;5075041;27;45294;-59
2021/09/10 01:03:33;;;;;;;;;4.00;4.00;;;;;22.42;75.14;100823.91;5076730;28;45220;-59
2021/09/10 01:06:00;;;;;;;;;3.25;3.00;;;;;22.37;75.75;100818.09;5076547;27;45302;-58
2021/09/10 01:08:28;;;;;;;;;4.00;4.00;;;;;22.34;75.92;100833.38;5071501;28;45625;-58
2021/09/10 01:10:54;;;;;;;;;4.50;3.00;;;;;22.28;75.71;100831.22;5075441;28;45485;-58
2021/09/10 01:13:19;;;;;;;;;4.50;2.75;;;;;22.28;76.14;100839.16;5077072;28;45323;-58
2021/09/10 01:15:45;;;;;;;;;5.50;4.00;;;;;22.34;75.64;100838.69;5075994;27;45560;-58
2021/09/10 01:18:11;;;;;;;;;3.50;3.50;;;;;22.37;75.70;100834.00;5077622;28;45294;-55
2021/09/10 01:20:37;;;;;;;;;2.50;2.25;;;;;22.38;76.13;100837.50;5075756;27;46469;-57
2021/09/10 01:23:02;;;;;;;;;3.00;2.50;;;;;22.35;76.28;100827.13;5077819;28;45293;-57
2021/09/10 01:25:28;;;;;;;;;4.00;4.00;;;;;22.37;75.75;100828.69;5067432;27;45532;-58
2021/09/10 01:27:56;;;;;;;;;3.00;3.00;;;;;22.43;75.79;100828.25;5069911;27;45703;-58
2021/09/10 01:30:25;;;;;;;;;8.00;4.00;;;;;22.45;76.00;100823.69;5077192;27;46208;-58
2021/09/10 01:32:51;;;;;;;;;4.25;3.00;;;;;22.43;75.28;100838.00;5070529;28;45436;-58
2021/09/10 01:35:16;;;;;;;;;5.00;4.25;;;;;22.44;74.97;100829.94;5076967;27;45206;-58
2021/09/10 01:37:43;;;;;;;;;4.25;3.00;;;;;22.47;75.36;100834.16;5079030;27;45543;-58
2021/09/10 01:40:09;;;;;;;;;3.00;3.00;;;;;22.45;75.27;100830.78;5078449;27;46312;-58
2021/09/10 01:42:36;;;;;;;;;3.00;3.00;;;;;22.43;75.58;100830.06;5068414;28;45619;-58
2021/09/10 01:45:01;;;;;;;;;3.50;3.25;;;;;22.40;75.07;100836.41;5074910;28;45342;-57
2021/09/10 01:47:26;;;;;;;;;4.00;3.00;;;;;22.37;76.13;100843.75;5076772;28;45515;-58
2021/09/10 01:49:52;;;;;;;;;5.50;3.75;;;;;22.32;75.96;100837.97;5072025;27;46617;-58
2021/09/10 01:52:17;;;;;;;;;4.00;4.00;;;;;22.30;75.24;100839.88;5075737;28;45628;-59
2021/09/10 01:54:43;;;;;;;;;3.50;3.50;;;;;22.26;76.15;100841.91;5073091;27;45341;-57
2021/09/10 01:57:08;;;;;;;;;4.00;3.00;;;;;22.27;75.80;100845.41;5075126;28;45477;-58
2021/09/10 01:59:33;;;;;;;;;3.25;3.00;;;;;22.29;75.80;100835.53;5075740;27;46559;-58
2021/09/10 02:01:59;;;;;;;;;2.00;2.00;;;;;22.27;75.72;100834.81;5076128;27;45251;-58
2021/09/10 02:04:25;;;;;;;;;4.00;3.25;;;;;22.28;75.24;100842.66;5072849;27;45322;-58
2021/09/10 02:06:50;;;;;;;;;6.00;3.75;;;;;22.29;75.84;100840.84;5070614;28;45229;-59
2021/09/10 02:09:16;;;;;;;;;3.25;3.25;;;;;22.29;75.98;100841.69;5074067;28;46466;-59
2021/09/10 02:11:41;;;;;;;;;5.00;3.00;;;;;22.32;75.35;100832.66;5074514;28;45236;-59
2021/09/10 02:14:07;;;;;;;;;2.75;2.75;;;;;22.35;75.16;100840.38;5072336;27;45509;-58
2021/09/10 02:16:33;;;;;;;;;7.00;4.00;;;;;22.33;75.42;100837.00;5074968;28;46493;-58
2021/09/10 02:18:58;;;;;;;;;4.00;4.00;;;;;22.34;75.38;100842.19;5072567;28;45367;-58
2021/09/10 02:21:24;;;;;;;;;4.25;4.00;;;;;22.35;75.91;100843.03;5074576;28;45341;-59
2021/09/10 02:23:49;;;;;;;;;3.50;3.25;;;;;22.37;75.39;100849.03;5072275;27;45446;-59
2021/09/10 02:26:14;;;;;;;;;6.00;3.00;;;;;22.39;75.60;100849.75;5063053;28;45395;-59
2021/09/10 02:28:40;;;;;;;;;6.50;3.75;;;;;22.29;76.64;100843.50;5073643;28;45665;-59
2021/09/10 02:31:05;;;;;;;;;3.25;3.00;;;;;22.25;76.10;100845.53;5076899;28;45316;-59
2021/09/10 02:33:31;;;;;;;;;3.00;3.00;;;;;22.27;75.79;100845.41;5077569;28;45323;-57
2021/09/10 02:35:57;;;;;;;;;4.75;4.00;;;;;22.30;75.59;100853.97;5077655;28;45597;-57
2021/09/10 02:38:23;;;;;;;;;3.00;3.00;;;;;22.30;75.97;100853.97;5078535;28;46368;-58
2021/09/10 02:40:49;;;;;;;;;4.25;3.00;;;;;22.32;75.51;100851.19;5074555;27;45318;-58
2021/09/10 02:43:14;;;;;;;;;4.00;3.00;;;;;22.30;75.84;100847.81;5069332;28;45788;-58
2021/09/10 02:45:40;;;;;;;;;3.75;3.00;;;;;22.29;76.01;100846.13;5074944;28;45348;-59
2021/09/10 02:48:05;;;;;;;;;5.00;4.00;;;;;22.26;75.85;100844.56;5072459;27;46245;-59
2021/09/10 02:50:30;;;;;;;;;5.00;4.00;;;;;22.27;75.97;100842.75;5073399;28;45314;-59
2021/09/10 02:52:56;;;;;;;;;2.75;2.25;;;;;22.24;76.16;100837.69;5074819;27;45842;-58
2021/09/10 02:55:21;;;;;;;;;3.75;3.00;;;;;22.16;76.22;100844.38;5071506;28;45494;-57
2021/09/10 02:57:47;;;;;;;;;4.00;3.75;;;;;22.17;76.12;100850.53;5069241;28;45455;-57
2021/09/10 03:00:13;;;;;;;;;3.50;3.50;;;;;22.13;76.24;100851.72;5071919;28;45238;-57
2021/09/10 03:02:39;;;;;;;;;5.25;3.00;;;;;22.13;76.54;100849.06;5072953;27;45697;-57
2021/09/10 03:05:06;;;;;;;;;4.00;4.00;;;;;22.15;76.39;100847.16;5071228;28;45477;-57
2021/09/10 03:07:31;;;;;;;;;4.00;4.00;;;;;22.20;76.59;100837.06;5064994;27;45574;-57
2021/09/10 03:09:56;;;;;;;;;4.50;4.00;;;;;22.19;75.96;100835.38;5073525;27;45594;-59
2021/09/10 03:12:23;;;;;;;;;5.00;4.00;;;;;22.20;76.03;100828.28;5071860;27;45575;-59
2021/09/10 03:14:48;;;;;;;;;6.00;4.00;;;;;22.22;76.27;100824.53;5071588;28;45414;-59
2021/09/10 03:17:14;;;;;;;;;6.25;4.00;;;;;22.26;75.53;100819.91;5071011;28;46012;-58
2021/09/10 03:19:40;;;;;;;;;4.50;4.50;;;;;22.25;75.97;100827.00;5072490;27;45266;-59
2021/09/10 03:22:06;;;;;;;;;10.00;7.00;;;;;22.26;75.50;100825.19;5070467;27;46454;-59
2021/09/10 03:24:31;;;;;;;;;5.00;4.00;;;;;22.24;75.92;100830.59;5062576;27;45928;-58
2021/09/10 03:26:56;;;;;;;;;7.00;6.00;;;;;22.22;75.92;100835.13;5068806;28;46281;-61
2021/09/10 03:29:22;;;;;;;;;6.00;4.00;;;;;22.25;75.57;100832.28;5074136;27;45351;-58
2021/09/10 03:31:47;;;;;;;;;4.50;3.00;;;;;22.26;75.96;100833.13;5075097;28;45302;-58
2021/09/10 03:34:13;;;;;;;;;3.00;3.00;;;;;22.26;75.95;100841.06;5075825;28;45330;-58
2021/09/10 03:36:38;;;;;;;;;4.25;3.00;;;;;22.22;75.88;100834.28;5077721;28;46524;-58
2021/09/10 03:39:04;;;;;;;;;4.50;4.00;;;;;22.14;76.61;100829.59;5077315;28;45359;-58
2021/09/10 03:41:29;;;;;;;;;8.50;4.50;;;;;22.04;77.08;100834.72;5078245;27;45428;-57
2021/09/10 03:43:54;;;;;;;;;5.25;5.00;;;;;22.02;77.14;100831.28;5076046;27;45426;-57
2021/09/10 03:46:21;;;;;;;;;5.75;4.00;;;;;21.99;77.34;100828.03;5076481;28;45372;-57
2021/09/10 03:48:47;;;;;;;;;3.50;3.50;;;;;22.01;77.63;100826.09;5073267;28;46404;-58
2021/09/10 03:51:12;;;;;;;;;6.75;6.50;;;;;22.01;77.79;100829.59;5075460;27;45358;-58
2021/09/10 03:53:38;;;;;;;;;10.50;7.25;;;;;21.95;79.04;100830.06;5071862;28;45386;-58
2021/09/10 03:56:04;;;;;;;;;9.00;6.50;;;;;21.84;78.73;100832.66;5077382;28;47489;-58
2021/09/10 03:58:30;;;;;;;;;7.25;5.25;;;;;21.80;80.05;100842.59;5071831;28;45160;-58
2021/09/10 04:00:55;;;;;;;;;6.50;5.00;;;;;21.76;80.64;100837.66;5074178;27;45718;-57
2021/09/10 04:03:20;;;;;;;;;8.00;7.00;;;;;21.71;80.38;100845.09;5072445;28;45474;-58
2021/09/10 04:05:47;;;;;;;;;4.25;4.25;;;;;21.69;81.69;100834.63;5075014;27;46533;-58
2021/09/10 04:08:12;;;;;;;;;7.50;6.50;;;;;21.64;81.62;100846.50;5066712;28;45194;-59
2021/09/10 04:10:38;;;;;;;;;7.75;6.00;;;;;21.62;82.21;100856.31;5074719;27;45319;-55
2021/09/10 04:13:03;;;;;;;;;7.00;5.00;;;;;21.61;82.42;100844.03;5074339;27;45505;-60
2021/09/10 04:15:29;;;;;;;;;9.75;8.00;;;;;21.59;81.59;100841.50;5073626;27;46598;-60
2021/09/10 04:17:54;;;;;;;;;8.25;7.25;;;;;21.54;81.77;100839.19;5072014;28;46514;-60
2021/09/10 04:20:20;;;;;;;;;7.50;6.50;;;;;21.52;82.11;100835.81;5079262;27;45331;-59
2021/09/10 04:22:45;;;;;;;;;6.00;6.00;;;;;21.51;82.10;100836.78;5076174;28;45486;-60
2021/09/10 04:25:11;;;;;;;;;5.75;4.25;;;;;21.50;82.37;100839.53;5079164;27;46140;-59
2021/09/10 04:27:37;;;;;;;;;8.75;5.25;;;;;21.48;82.22;100846.75;5070197;27;45331;-60
2021/09/10 04:30:07;;;;;;;;;7.00;6.25;;;;;21.42;81.84;100842.72;5079684;27;45427;-59
2021/09/10 04:32:32;;;;;;;;;6.75;6.75;;;;;21.48;81.59;100847.59;5076928;27;45569;-57
2021/09/10 04:34:58;;;;;;;;;6.25;6.25;;;;;21.56;80.95;100842.56;5079734;27;45330;-57
2021/09/10 04:37:23;;;;;;;;;8.25;7.00;;;;;21.64;81.05;100841.19;5077548;28;45169;-59
2021/09/10 04:39:49;;;;;;;;;6.25;5.75;;;;;21.68;80.97;100848.81;5080974;27;45436;-60
2021/09/10 04:42:15;;;;;;;;;9.75;8.50;;;;;21.74;80.81;100844.84;5064732;28;45445;-58
2021/09/10 04:44:40;;;;;;;;;8.00;7.00;;;;;21.80;80.43;100839.13;5074017;27;46173;-58
2021/09/10 04:47:05;;;;;;;;;8.00;7.25;;;;;21.80;80.02;100839.97;5075312;28;45508;-58
2021/09/10 04:49:31;;;;;;;;;11.75;11.75;;;;;21.85;79.79;100837.84;5077309;27;45402;-56
2021/09/10 04:51:56;;;;;;;;;7.50;6.75;;;;;21.91;79.82;100841.00;5073912;28;45266;-56
2021/09/10 04:54:21;;;;;;;;;8.50;5.75;;;;;21.94;79.47;100844.25;5077711;27;46567;-56
2021/09/10 04:56:47;;;;;;;;;8.00;5.75;;;;;21.91;79.55;100830.41;5072665;27;45492;-58
2021/09/10 04:59:13;;;;;;;;;8.50;8.25;;;;;21.97;79.27;100844.03;5075004;27;45824;-58
2021/09/10 05:01:38;;;;;;;;;7.75;7.25;;;;;21.99;79.06;100836.81;5071656;27;45400;-58
2021/09/10 05:04:04;;;;;;;;;7.50;7.00;;;;;22.03;78.82;100846.25;5076132;28;46613;-58
2021/09/10 05:06:29;;;;;;;;;6.75;5.75;;;;;22.04;78.76;100849.72;5071435;27;45357;-57
2021/09/10 05:08:58;;;;;;;;;6.75;5.25;;;;;22.05;78.39;100846.16;5073473;28;45777;-57
2021/09/10 05:11:24;;;;;;;;;8.00;6.25;;;;;22.04;78.63;100855.91;5073640;28;45583;-57
2021/09/10 05:13:49;;;;;;;;;6.25;5.00;;;;;22.04;78.50;100850.59;5077945;27;46286;-57
2021/09/10 05:16:15;;;;;;;;;6.75;6.75;;;;;22.02;78.46;100852.47;5075185;28;45361;-61
2021/09/10 05:18:40;;;;;;;;;5.50;5.50;;;;;22.02;78.20;100860.41;5076590;28;45494;-57
2021/09/10 05:21:05;;;;;;;;;8.25;7.00;;;;;22.04;78.12;100861.19;5074403;28;45342;-57
2021/09/10 05:23:31;;;;;;;;;8.00;7.00;;;;;22.03;78.28;100856.81;5077408;27;46495;-57
2021/09/10 05:25:57;;;;;;;;;9.00;7.25;;;;;22.05;78.02;100870.81;5073894;28;45312;-57
2021/09/10 05:28:23;;;;;;;;;8.75;7.25;;;;;22.08;77.91;100869.75;5072983;28;45515;-57
2021/09/10 05:30:48;;;;;;;;;7.25;6.75;;;;;22.10;77.69;100868.69;5076875;27;45411;-60
2021/09/10 05:33:13;;;;;;;;;7.50;6.00;;;;;22.10;77.73;100867.84;5079029;27;46328;-57
2021/09/10 05:35:39;;;;;;;;;8.25;8.25;;;;;22.13;77.70;100871.09;5076946;27;45204;-58
2021/09/10 05:38:04;;;;;;;;;10.25;7.50;;;;;22.16;77.13;100862.91;5078883;27;45520;-57
2021/09/10 05:40:30;;;;;;;;;8.50;7.75;;;;;22.16;77.21;100867.38;5076507;27;45505;-58
2021/09/10 05:42:55;;;;;;;;;13.00;9.00;;;;;22.15;77.08;100873.63;5069226;27;46098;-57
2021/09/10 05:45:20;;;;;;;;;13.00;6.00;;;;;22.16;77.36;100885.91;5075179;27;45258;-58
2021/09/10 05:47:46;;;;;;;;;13.75;8.75;;;;;22.14;77.39;100887.81;5076959;27;45289;-59
2021/09/10 05:50:11;;;;;;;;;10.75;8.50;;;;;22.10;77.20;100897.78;5071537;27;45273;-57
2021/09/10 05:52:37;;;;;;;;;8.00;6.00;;;;;22.00;77.70;100899.38;5076447;27;46146;-57
2021/09/10 05:55:03;;;;;;;;;13.00;7.25;;;;;21.94;78.00;100896.34;5071022;28;45247;-57
2021/09/10 05:57:28;;;;;;;;;12.25;8.50;;;;;21.95;77.98;100898.88;5076157;27;45241;-57
2021/09/10 05:59:53;;;;;;;;;10.25;5.50;;;;;21.95;77.57;100904.16;5070646;27;45308;-57
2021/09/10 06:02:21;;;;;;;;;7.25;6.75;;;;;21.92;78.01;100912.31;5076441;27;45413;-58
2021/09/10 06:04:46;;;;;;;;;5.00;5.00;;;;;21.93;78.16;100906.06;5072178;27;45395;-56
2021/09/10 06:07:11;;;;;;;;;10.75;7.00;;;;;21.90;78.38;100911.59;5069026;27;45586;-56
2021/09/10 06:09:37;;;;;;;;;11.00;8.00;;;;;21.86;78.12;100907.47;5074916;28;45550;-56
2021/09/10 06:12:04;;;;;;;;;8.00;6.50;;;;;21.89;77.87;100917.00;5076274;27;46382;-57
2021/09/10 06:14:30;;;;;;;;;9.00;7.75;;;;;21.92;78.13;100912.31;5072062;27;45402;-57
2021/09/10 06:16:55;;;;;;;;;7.25;6.25;;;;;21.95;78.26;100922.69;5076649;27;45453;-57
2021/09/10 06:19:20;;;;;;;;;6.75;4.25;;;;;21.92;77.78;100919.41;5072463;27;45564;-57
2021/09/10 06:21:46;;;;;;;;;9.75;9.75;;;;;21.83;78.82;100913.84;5076089;27;45235;-57
2021/09/10 06:24:11;;;;;;;;;11.50;9.50;;;;;21.81;78.87;100918.38;5070528;27;45216;-57
2021/09/10 06:26:37;;;;;;;;;10.00;6.75;;;;;21.88;78.58;100920.59;5062331;28;45242;-57
2021/09/10 06:29:02;;;;;;;;;9.00;7.75;;;;;21.94;78.81;100913.06;5075147;28;45473;-57
2021/09/10 06:31:27;;;;;;;;;6.75;6.00;;;;;21.99;78.33;100923.31;5077990;27;46362;-57
2021/09/10 06:33:53;;;;;;;;;11.00;8.50;;;;;22.02;78.24;100921.28;5074998;27;45221;-57
2021/09/10 06:36:18;;;;;;;;;8.75;7.25;;;;;22.02;78.57;100923.91;5076986;27;45253;-55
2021/09/10 06:38:43;;;;;;;;;8.50;7.00;;;;;22.07;78.08;100937.72;5077381;27;45398;-55
2021/09/10 06:41:09;;;;;;;;;8.75;8.75;;;;;22.06;78.24;100933.38;5070417;27;46608;-56
2021/09/10 06:43:34;;;;;;;;;10.50;9.25;;;;;22.00;78.24;100935.56;5068200;28;45385;-56
2021/09/10 06:45:59;;;;;;;;;16.75;9.00;;;;;22.02;78.40;100933.66;5078204;27;45329;-56
2021/09/10 06:48:25;;;;;;;;;8.75;7.00;;;;;22.05;78.46;100931.69;5070538;27;45443;-56
2021/09/10 06:50:50;;;;;;;;;20.00;15.25;;;;;22.04;78.74;100940.59;5075359;27;47513;-56
2021/09/10 06:53:15;;;;;;;;;12.50;9.25;;;;;22.00;78.81;100932.94;5070332;27;45465;-56
2021/09/10 06:55:41;;;;;;;;;14.75;9.25;;;;;22.03;78.71;100944.16;5074938;27;45357;-56
2021/09/10 06:58:06;;;;;;;;;11.25;9.00;;;;;22.09;78.04;100946.41;5069300;27;45381;-56
2021/09/10 07:00:31;;;;;;;;;35.50;24.25;;;;;22.14;78.02;100943.41;5074447;28;46559;-56
2021/09/10 07:02:57;;;;;;;;;24.50;14.75;;;;;22.20;77.88;100958.84;5069797;27;45481;-56
2021/09/10 07:05:22;;;;;;;;;16.00;11.50;;;;;22.21;77.79;100949.09;5074428;27;45362;-56
2021/09/10 07:07:48;;;;;;;;;23.00;17.25;;;;;22.19;77.94;100954.50;5077984;27;45441;-56
2021/09/10 07:10:13;;;;;;;;;18.75;13.00;;;;;22.14;78.26;100949.53;5074880;27;46082;-56
2021/09/10 07:12:39;;;;;;;;;18.75;10.00;;;;;22.16;78.07;100960.03;5070283;27;45416;-56
2021/09/10 07:15:05;;;;;;;;;13.75;7.25;;;;;22.19;77.88;100954.50;5075077;27;45418;-57
2021/09/10 07:17:32;;;;;;;;;13.25;10.25;;;;;22.19;78.03;100958.94;5070848;27;45229;-57
2021/09/10 07:19:58;;;;;;;;;19.75;13.00;;;;;22.07;79.18;100956.25;5075190;27;47287;-57
2021/09/10 07:22:24;;;;;;;;;15.50;12.00;;;;;21.97;78.74;100968.41;5070686;27;45624;-57
2021/09/10 07:24:49;;;;;;;;;24.25;19.50;;;;;21.91;79.17;100971.50;5066734;28;45361;-57
2021/09/10 07:27:15;;;;;;;;;15.00;11.00;;;;;21.95;79.18;100965.03;5063794;28;45359;-57
2021/09/10 07:29:40;;;;;;;;;7.00;6.25;;;;;21.97;79.25;100963.09;5077077;27;45414;-57
2021/09/10 07:32:06;;;;;;;;;11.50;9.25;;;;;22.04;79.15;100964.41;5072135;28;45490;-57
2021/09/10 07:34:31;;;;;;;;;10.75;10.50;;;;;22.08;79.28;100967.69;5074992;28;45430;-57
2021/09/10 07:36:59;;;;;;;;;15.75;13.75;;;;;22.14;79.17;100973.38;5074385;27;45323;-57
2021/09/10 07:39:24;;;;;;;;;24.25;18.00;;;;;22.19;79.25;100967.72;5078849;27;45409;-57
2021/09/10 07:41:50;;;;;;;;;10.50;9.00;;;;;22.23;79.02;100963.09;5063175;27;45412;-57
2021/09/10 07:44:17;;;;;;;;;19.50;10.75;;;;;22.28;78.78;100976.84;5072192;28;45780;-57
2021/09/10 07:46:43;;;;;;;;;19.00;13.00;;;;;22.33;78.33;100975.53;5074490;28;45381;-57
2021/09/10 07:49:09;;;;;;;;;17.50;14.75;;;;;22.41;78.34;100977.59;5076260;28;46602;-57
2021/09/10 07:51:36;;;;;;;;;9.50;7.25;;;;;22.46;77.82;100972.84;5073441;27;45836;-57
2021/09/10 07:54:05;;;;;;;;;14.00;10.75;;;;;22.57;77.65;100986.13;5077567;28;45421;-57
2021/09/10 07:56:31;;;;;;;;;24.00;17.75;;;;;22.69;77.17;100982.59;5077174;27;45523;-57
2021/09/10 07:58:56;;;;;;;;;12.00;8.00;;;;;22.74;76.82;100979.59;5078302;27;46245;-57
2021/09/10 08:01:21;;;;;;;;;7.75;6.00;;;;;22.68;76.79;100994.13;5073573;27;45519;-56
2021/09/10 08:03:47;;;;;;;;;9.25;6.25;;;;;22.55;76.75;100989.84;5078033;27;45421;-56
2021/09/10 08:06:12;;;;;;;;;8.25;7.25;;;;;22.48;77.40;100994.75;5074548;27;45260;-56
2021/09/10 08:08:37;;;;;;;;;38.25;20.25;;;;;22.51;77.36;100988.38;5073295;27;46764;-57
2021/09/10 08:11:04;;;;;;;;;14.75;12.00;;;;;22.53;76.87;100994.41;5080861;28;45465;-56
2021/09/10 08:13:30;;;;;;;;;10.50;8.25;;;;;22.49;77.31;100996.44;5078821;27;45391;-56
2021/09/10 08:15:55;;;;;;;;;37.50;26.75;;;;;22.48;77.31;101000.06;5072849;28;45539;-56
2021/09/10 08:18:21;;;;;;;;;18.25;14.25;;;;;22.50;77.43;101008.72;5078357;27;46343;-56
2021/09/10 08:20:46;;;;;;;;;15.50;12.75;;;;;22.51;77.51;100997.19;5073367;27;45290;-56
2021/09/10 08:23:11;;;;;;;;;23.00;16.50;;;;;22.53;77.41;101011.16;5078279;27;45354;-56
2021/09/10 08:25:37;;;;;;;;;11.00;8.00;;;;;22.58;77.43;101011.66;5065393;28;45624;-56
2021/09/10 08:28:02;;;;;;;;;11.50;8.00;;;;;22.66;76.78;101009.31;5071006;28;45910;-56
2021/09/10 08:30:28;;;;;;;;;13.25;9.25;;;;;22.86;76.68;101005.22;5077405;27;45257;-56
2021/09/10 08:32:55;;;;;;;;;7.00;6.50;;;;;23.09;76.12;100998.19;5080437;27;45673;-56
2021/09/10 08:35:21;;;;;;;;;8.50;6.00;;;;;23.29;75.07;101012.56;5077352;27;45425;-56
2021/09/10 08:37:46;;;;;;;;;6.75;6.75;;;;;23.46;73.26;101012.13;5080004;27;47051;-56
2021/09/10 08:40:12;;;;;;;;;8.25;8.25;;;;;23.53;73.36;101007.19;5079613;27;45335;-56
2021/09/10 08:42:37;;;;;;;;;12.00;8.00;;;;;23.58;73.15;101007.69;5069334;28;45263;-56
2021/09/10 08:45:04;;;;;;;;;13.00;11.00;;;;;23.73;73.00;101005.66;5076621;27;45303;-56
2021/09/10 08:47:30;;;;;;;;;13.25;7.75;;;;;23.91;72.56;101001.56;5077177;27;45993;-56
2021/09/10 08:49:55;;;;;;;;;6.50;5.00;;;;;24.08;70.19;101006.38;5074912;27;45473;-56
2021/09/10 08:52:22;;;;;;;;;9.50;6.00;;;;;24.03;68.82;101011.22;5077189;28;45242;-56
2021/09/10 08:54:48;;;;;;;;;12.00;8.00;;;;;23.96;69.89;101016.16;5074910;27;45461;-56
2021/09/10 08:57:13;;;;;;;;;9.50;7.75;;;;;24.09;70.12;101012.53;5077198;28;45271;-56
2021/09/10 08:59:39;;;;;;;;;5.75;5.75;;;;;24.29;68.79;101018.94;5072645;28;45518;-56
2021/09/10 09:02:04;;;;;;;;;6.00;6.00;;;;;24.34;69.22;101017.59;5070844;28;45481;-56
2021/09/10 09:04:35;;;;;;;;;7.00;6.75;;;;;24.42;66.71;101015.13;5055789;28;46000;-56
2021/09/10 09:07:04;;;;;;;;;5.25;5.25;;;;;24.33;67.22;101026.53;5071591;27;46304;-56
2021/09/10 09:09:47;;;;;;;;;9.50;6.50;;;;;24.13;66.92;101024.59;5075350;28;45490;-56
2021/09/10 09:12:32;;;;;;;;;6.75;5.25;;;;;24.11;67.14;101021.22;5076983;27;45361;-56
2021/09/10 09:14:59;;;;;;;;;7.75;6.25;;;;;24.11;67.14;101023.88;5076369;28;45309;-56
2021/09/10 09:17:32;;;;;;;;;13.00;7.00;;;;;24.10;68.06;101025.69;5073249;27;46084;-56
2021/09/10 09:20:25;;;;;;;;;8.00;6.00;;;;;24.11;67.17;101031.84;5072904;28;45254;-56
2021/09/10 09:23:07;;;;;;;;;7.50;7.00;;;;;24.14;66.89;101031.59;5078718;28;45334;-56
2021/09/10 09:25:40;;;;;;;;;13.50;9.50;;;;;24.22;67.36;101023.84;5065556;27;45392;-56
2021/09/10 09:28:15;;;;;;;;;19.00;10.50;;;;;24.29;67.14;101025.09;5072464;28;46465;-56
2021/09/10 09:30:42;;;;;;;;;9.00;7.25;;;;;24.50;67.11;101028.66;5076109;27;45638;-56
2021/09/10 09:33:07;;;;;;;;;7.50;7.00;;;;;24.71;65.85;101030.53;5079051;27;45310;-56
2021/09/10 09:35:33;;;;;;;;;8.00;6.00;;;;;24.68;63.18;101033.44;5076295;27;45227;-57
2021/09/10 09:38:09;;;;;;;;;6.25;5.75;;;;;24.66;64.82;101030.94;5078823;27;46157;-56
2021/09/10 09:40:34;;;;;;;;;11.75;10.00;;;;;24.67;63.87;101024.63;5076225;27;45504;-56
2021/09/10 09:43:12;;;;;;;;;9.25;6.00;;;;;24.70;63.58;101023.53;5069195;27;45346;-56
2021/09/10 09:45:38;;;;;;;;;7.75;6.00;;;;;24.58;62.91;101028.03;5076141;28;45287;-56
2021/09/10 09:48:09;;;;;;;;;11.50;8.00;;;;;24.57;63.87;101026.34;5075082;27;45463;-56
2021/09/10 09:50:34;;;;;;;;;9.00;8.00;;;;;24.65;64.44;101029.25;5073850;28;45152;-57
2021/09/10 09:53:03;;;;;;;;;8.25;6.25;;;;;24.75;63.50;101031.97;5074514;27;45540;-57
2021/09/10 09:55:29;;;;;;;;;13.50;13.25;;;;;24.72;62.94;101029.56;5074696;28;45278;-57
2021/09/10 09:57:55;;;;;;;;;15.00;12.25;;;;;24.70;63.83;101031.50;5073688;27;45891;-56
2021/09/10 10:00:21;;;;;;;;;16.50;11.25;;;;;24.79;63.99;101034.25;5074391;28;45414;-56
2021/09/10 10:02:46;;;;;;;;;22.75;12.50;;;;;24.79;62.90;101028.94;5072661;28;45292;-56
2021/09/10 10:05:16;;;;;;;;;27.50;17.75;;;;;24.70;62.95;101035.00;5073609;28;45268;-57
2021/09/10 10:08:06;;;;;;;;;9.00;8.00;;;;;24.69;63.54;101028.00;5064925;27;46459;-56
2021/09/10 10:10:41;;;;;;;;;13.75;10.00;;;;;24.88;63.79;101032.66;5077843;27;45648;-56
2021/09/10 10:13:08;;;;;;;;;11.00;6.50;;;;;25.08;62.91;101033.69;5075367;28;45570;-56
2021/09/10 10:15:43;;;;;;;;;7.00;6.00;;;;;25.23;61.13;101036.84;5079439;27;45633;-55
2021/09/10 10:18:09;;;;;;;;;6.50;6.25;;;;;25.37;62.38;101034.72;5074547;28;47936;-56
2021/09/10 10:20:47;;;;;;;;;4.50;4.50;;;;;25.57;61.22;101024.19;5074798;28;45575;-57
2021/09/10 10:23:43;;;;;;;;;7.75;7.00;;;;;25.62;59.92;101028.13;5071122;28;45511;-57
2021/09/10 10:26:12;;;;;;;;;27.75;19.00;;;;;25.59;59.56;101024.91;5083186;27;45511;-57
2021/09/10 10:28:43;;;;;;;;;6.50;4.75;;;;;25.55;60.55;101018.16;5073332;28;45318;-56
2021/09/10 10:31:10;;;;;;;;;18.25;11.50;;;;;25.60;60.46;101011.47;5078017;28;45362;-57
2021/09/10 10:33:49;;;;;;;;;24.50;17.50;;;;;25.78;60.17;101011.72;5076629;27;45262;-56
2021/09/10 10:36:35;;;;;;;;;8.50;6.75;;;;;26.11;59.14;101013.25;5065296;28;45444;-56
2021/09/10 10:39:14;;;;;;;;;15.25;11.50;;;;;26.33;58.79;101013.03;5077845;28;46252;-56
2021/09/10 10:41:56;;;;;;;;;5.50;3.25;;;;;26.58;58.19;101014.34;5066887;27;45255;-56
2021/09/10 10:44:48;;;;;;;;;7.75;6.00;;;;;26.76;56.56;101001.16;5070207;28;45287;-57
2021/09/10 10:47:16;;;;;;;;;11.00;9.00;;;;;26.94;56.08;101001.31;5062549;28;46084;-57
2021/09/10 10:49:43;;;;;;;;;16.75;10.25;;;;;26.92;53.22;100993.44;5074395;27;46507;-56
2021/09/10 10:52:26;;;;;;;;;7.00;6.00;;;;;26.68;53.18;100995.72;5072958;28;45256;-56
2021/09/10 10:55:16;;;;;;;;;14.75;9.25;;;;;26.79;53.98;101000.88;5071911;27;45350;-56
2021/09/10 10:57:41;;;;;;;;;20.75;6.25;;;;;27.08;53.64;100989.41;5072623;28;45271;-56
2021/09/10 11:00:28;;;;;;;;;4.25;4.25;;;;;27.27;52.97;100994.72;5070880;28;46187;-56
2021/09/10 11:03:15;;;;;;;;;13.00;6.25;;;;;27.29;52.22;100987.41;5071792;28;45537;-56
2021/09/10 11:05:42;;;;;;;;;4.50;4.50;;;;;27.40;49.58;100986.38;5072434;28;45323;-56
2021/09/10 11:08:07;;;;;;;;;9.50;7.25;;;;;27.53;51.71;100979.72;5066556;27;45434;-56
2021/09/10 11:10:33;;;;;;;;;4.00;4.00;;;;;27.74;50.41;100978.69;5075354;27;46718;-55
2021/09/10 11:12:59;;;;;;;;;6.50;5.00;;;;;27.74;50.14;100978.69;5072133;27;45354;-56
2021/09/10 11:15:30;;;;;;;;;5.50;5.00;;;;;27.66;50.25;100981.28;5076491;28;45336;-56
2021/09/10 11:17:55;;;;;;;;;5.50;4.00;;;;;27.53;50.05;100979.72;5073198;28;45556;-56
2021/09/10 11:20:45;;;;;;;;;4.50;3.75;;;;;27.34;49.16;100992.28;5075913;27;46442;-56